Time;durP1;ratioP1;P1;durP2;ratioP2;P2;SDS_P1;SDS_P2;PMS_P1;PMS_P2;Temp;Humidity;BMP_temperature;BMP_pressure;BME280_temperature;BME280_humidity;BME280_pressure;Samples;Min_cycle;Max_cycle;Signal;HPM_P1;HPM_P2
2021/05/14 00:01:52;;;;;;;24.48;16.52;;;;;;;;;;4344804;33;20139;-70
2021/05/14 00:04:19;;;;;;;26.92;17.60;;;;;;;;;;4345182;33;20151;-69
2021/05/14 00:06:44;;;;;;;24.40;17.33;;;;;;;;;;4343986;33;20144;-70
2021/05/14 00:09:10;;;;;;;24.77;17.62;;;;;;;;;;4343774;33;20185;-69
2021/05/14 00:11:35;;;;;;;26.67;18.55;;;;;;;;;;4343608;33;20476;-70
2021/05/14 00:14:00;;;;;;;23.73;15.95;;;;;;;;;;4344625;33;20418;-70
2021/05/14 00:16:26;;;;;;;30.77;19.75;;;;;;;;;;4344228;33;20279;-69
2021/05/14 00:18:51;;;;;;;24.05;16.42;;;;;;;;;;4344785;33;20560;-70
2021/05/14 00:21:16;;;;;;;27.75;19.00;;;;;;;;;;4344772;33;20515;-69
2021/05/14 00:23:41;;;;;;;28.00;19.15;;;;;;;;;;4344616;33;20504;-70
2021/05/14 00:26:06;;;;;;;24.25;18.15;;;;;;;;;;4345284;33;20226;-69
2021/05/14 00:28:31;;;;;;;23.08;16.80;;;;;;;;;;4343212;33;20189;-70
2021/05/14 00:30:57;;;;;;;26.37;18.55;;;;;;;;;;4344651;33;20139;-69
2021/05/14 00:33:22;;;;;;;26.60;17.33;;;;;;;;;;4344477;33;20147;-70
2021/05/14 00:35:47;;;;;;;22.23;16.40;;;;;;;;;;4343011;33;20264;-70
2021/05/14 00:38:14;;;;;;;22.93;16.13;;;;;;;;;;4344634;33;20206;-70
2021/05/14 00:40:39;;;;;;;22.92;15.30;;;;;;;;;;4330176;33;20256;-70
2021/05/14 00:43:04;;;;;;;21.52;15.50;;;;;;;;;;4329341;33;20206;-70
2021/05/14 00:45:29;;;;;;;22.87;15.73;;;;;;;;;;4344350;33;20301;-71
2021/05/14 00:47:54;;;;;;;19.98;15.45;;;;;;;;;;4343592;33;20433;-70
2021/05/14 00:50:20;;;;;;;24.55;16.48;;;;;;;;;;4343487;33;20305;-70
2021/05/14 00:52:45;;;;;;;28.77;18.12;;;;;;;;;;4344879;33;20139;-70
2021/05/14 00:55:10;;;;;;;25.80;17.10;;;;;;;;;;4343679;33;20217;-70
2021/05/14 00:57:36;;;;;;;26.55;17.12;;;;;;;;;;4343433;33;20661;-70
2021/05/14 01:00:02;;;;;;;24.12;15.65;;;;;;;;;;4343591;33;20178;-70
2021/05/14 01:02:27;;;;;;;24.87;16.87;;;;;;;;;;4345074;33;20217;-70
2021/05/14 01:04:53;;;;;;;29.63;19.10;;;;;;;;;;4345009;33;20163;-70
2021/05/14 01:07:18;;;;;;;30.62;18.65;;;;;;;;;;4344280;33;20195;-71
2021/05/14 01:09:43;;;;;;;28.38;18.62;;;;;;;;;;4343170;33;20187;-72
2021/05/14 01:12:09;;;;;;;28.50;18.60;;;;;;;;;;4342637;33;20563;-71
2021/05/14 01:14:35;;;;;;;29.00;18.48;;;;;;;;;;4343509;33;20165;-70
2021/05/14 01:17:00;;;;;;;26.42;17.92;;;;;;;;;;4342741;33;20254;-71
2021/05/14 01:19:25;;;;;;;28.70;19.70;;;;;;;;;;4343182;33;20135;-71
2021/05/14 01:21:51;;;;;;;31.75;18.98;;;;;;;;;;4344231;33;20545;-71
2021/05/14 01:24:16;;;;;;;27.30;17.58;;;;;;;;;;4344315;33;20194;-71
2021/05/14 01:26:41;;;;;;;27.62;18.65;;;;;;;;;;4330800;33;20197;-71
2021/05/14 01:29:09;;;;;;;29.25;18.48;;;;;;;;;;4330930;33;20203;-71
2021/05/14 01:31:34;;;;;;;28.83;18.52;;;;;;;;;;4328402;33;20557;-72
2021/05/14 01:33:59;;;;;;;29.30;18.15;;;;;;;;;;4330223;33;20189;-71
2021/05/14 01:36:25;;;;;;;26.42;18.20;;;;;;;;;;4343731;33;20201;-72
2021/05/14 01:38:50;;;;;;;29.27;19.35;;;;;;;;;;4343703;33;20144;-71
2021/05/14 01:41:15;;;;;;;23.60;17.20;;;;;;;;;;4343107;32;20261;-72
2021/05/14 01:43:41;;;;;;;26.05;17.52;;;;;;;;;;4343654;33;20147;-71
2021/05/14 01:46:07;;;;;;;28.60;18.98;;;;;;;;;;4342767;33;20193;-71
2021/05/14 01:48:32;;;;;;;29.83;18.55;;;;;;;;;;4328890;33;20635;-71
2021/05/14 01:51:04;;;;;;;26.80;18.37;;;;;;;;;;4342316;33;20167;-71
2021/05/14 01:53:29;;;;;;;27.87;19.05;;;;;;;;;;4344332;33;20169;-72
2021/05/14 01:55:56;;;;;;;27.23;18.12;;;;;;;;;;4342266;33;20274;-71
2021/05/14 01:58:21;;;;;;;27.17;17.52;;;;;;;;;;4342218;33;20139;-72
2021/05/14 02:00:46;;;;;;;26.80;17.70;;;;;;;;;;4342142;33;20171;-70
2021/05/14 02:03:11;;;;;;;31.08;19.50;;;;;;;;;;4341859;33;20272;-70
2021/05/14 02:05:36;;;;;;;37.85;20.08;;;;;;;;;;4343336;33;20193;-70
2021/05/14 02:08:01;;;;;;;33.28;18.98;;;;;;;;;;4342580;33;20310;-70
2021/05/14 02:10:27;;;;;;;27.65;17.15;;;;;;;;;;4328983;33;20190;-70
2021/05/14 02:12:52;;;;;;;29.35;17.23;;;;;;;;;;4341692;33;20576;-72
2021/05/14 02:15:17;;;;;;;27.80;18.15;;;;;;;;;;4328370;33;20162;-70
2021/05/14 02:17:44;;;;;;;25.10;16.65;;;;;;;;;;4343191;33;20418;-71
2021/05/14 02:20:09;;;;;;;29.27;18.92;;;;;;;;;;4329757;33;20546;-71
2021/05/14 02:22:35;;;;;;;26.92;18.30;;;;;;;;;;4342967;33;20151;-71
2021/05/14 02:25:00;;;;;;;31.98;20.15;;;;;;;;;;4329755;33;20288;-71
2021/05/14 02:27:25;;;;;;;29.48;19.33;;;;;;;;;;4341711;33;20265;-70
2021/05/14 02:29:50;;;;;;;27.17;18.42;;;;;;;;;;4342832;33;20317;-70
2021/05/14 02:32:16;;;;;;;26.87;17.90;;;;;;;;;;4327710;33;20598;-70
2021/05/14 02:34:41;;;;;;;27.27;18.25;;;;;;;;;;4343250;33;20210;-71
2021/05/14 02:37:06;;;;;;;28.35;18.85;;;;;;;;;;4342795;33;20170;-71
2021/05/14 02:39:32;;;;;;;24.95;17.17;;;;;;;;;;4329836;33;20258;-72
2021/05/14 02:41:57;;;;;;;27.00;17.25;;;;;;;;;;4328383;33;20209;-72
2021/05/14 02:44:22;;;;;;;28.08;18.02;;;;;;;;;;4343099;33;20170;-72
2021/05/14 02:46:48;;;;;;;29.33;17.85;;;;;;;;;;4343331;33;20202;-72
2021/05/14 02:49:13;;;;;;;29.77;18.58;;;;;;;;;;4342824;33;20166;-71
2021/05/14 02:51:38;;;;;;;27.10;17.58;;;;;;;;;;4329663;33;20166;-71
2021/05/14 02:54:03;;;;;;;29.40;17.92;;;;;;;;;;4342902;33;20147;-71
2021/05/14 02:56:30;;;;;;;25.77;17.90;;;;;;;;;;4341129;33;20286;-72
2021/05/14 02:58:55;;;;;;;26.45;16.73;;;;;;;;;;4341504;33;20221;-72
2021/05/14 03:01:20;;;;;;;28.65;17.58;;;;;;;;;;4329017;33;20609;-71
2021/05/14 03:03:45;;;;;;;27.75;17.10;;;;;;;;;;4328638;33;20166;-71
2021/05/14 03:06:10;;;;;;;26.40;17.45;;;;;;;;;;4342801;33;20194;-72
2021/05/14 03:08:36;;;;;;;26.83;16.92;;;;;;;;;;4343126;33;20278;-72
2021/05/14 03:11:02;;;;;;;23.95;16.45;;;;;;;;;;4341815;33;20144;-72
2021/05/14 03:13:27;;;;;;;24.30;16.35;;;;;;;;;;4341386;33;20135;-72
2021/05/14 03:15:52;;;;;;;23.98;16.60;;;;;;;;;;4342557;33;20271;-73
2021/05/14 03:18:17;;;;;;;23.23;16.58;;;;;;;;;;4342901;33;20186;-73
2021/05/14 03:20:43;;;;;;;25.00;16.62;;;;;;;;;;4341176;33;20194;-72
2021/05/14 03:23:08;;;;;;;24.95;15.63;;;;;;;;;;4342410;33;20237;-71
2021/05/14 03:25:33;;;;;;;27.13;17.15;;;;;;;;;;4342488;33;20244;-72
2021/05/14 03:27:58;;;;;;;27.52;16.85;;;;;;;;;;4341083;33;20532;-72
2021/05/14 03:30:23;;;;;;;29.05;18.12;;;;;;;;;;4344674;33;20159;-72
2021/05/14 03:32:49;;;;;;;25.33;17.75;;;;;;;;;;4344816;33;20132;-72
2021/05/14 03:35:14;;;;;;;29.85;18.87;;;;;;;;;;4331679;33;20594;-72
2021/05/14 03:37:39;;;;;;;30.62;19.65;;;;;;;;;;4344350;33;20135;-72
2021/05/14 03:40:16;;;;;;;25.62;17.00;;;;;;;;;;4332379;33;20239;-72
2021/05/14 03:42:41;;;;;;;27.23;18.05;;;;;;;;;;4345418;33;20131;-73
2021/05/14 03:45:06;;;;;;;37.05;19.67;;;;;;;;;;4345404;33;20201;-72
2021/05/14 03:47:31;;;;;;;26.95;17.98;;;;;;;;;;4345686;33;20166;-72
2021/05/14 03:49:58;;;;;;;32.78;20.00;;;;;;;;;;4344203;33;20179;-73
2021/05/14 03:52:23;;;;;;;31.35;19.02;;;;;;;;;;4344187;33;20551;-72
2021/05/14 03:54:48;;;;;;;31.08;18.23;;;;;;;;;;4343663;33;20174;-73
2021/05/14 03:57:14;;;;;;;32.80;19.80;;;;;;;;;;4343906;33;20167;-73
2021/05/14 03:59:39;;;;;;;24.55;16.85;;;;;;;;;;4345151;33;20592;-72
2021/05/14 04:02:04;;;;;;;27.80;17.23;;;;;;;;;;4344179;33;20156;-73
2021/05/14 04:04:29;;;;;;;28.83;17.67;;;;;;;;;;4345412;33;20139;-73
2021/05/14 04:06:55;;;;;;;25.65;18.92;;;;;;;;;;4345167;33;20139;-73
2021/05/14 04:09:31;;;;;;;26.35;17.25;;;;;;;;;;4344632;33;20195;-73
2021/05/14 04:14:40;;;;;;;25.75;16.87;;;;;;;;;;4345099;33;20211;-72
2021/05/14 04:17:06;;;;;;;24.87;16.40;;;;;;;;;;4331539;33;20167;-73
2021/05/14 04:19:32;;;;;;;26.20;18.05;;;;;;;;;;4345154;33;20177;-73
2021/05/14 04:21:57;;;;;;;26.00;16.65;;;;;;;;;;4345112;33;20545;-73
2021/05/14 04:24:23;;;;;;;28.80;18.25;;;;;;;;;;4329789;33;20176;-73
2021/05/14 04:26:49;;;;;;;24.27;16.40;;;;;;;;;;4345384;33;20147;-73
2021/05/14 04:29:15;;;;;;;25.48;17.15;;;;;;;;;;4332010;33;20194;-73
2021/05/14 04:31:42;;;;;;;31.62;19.75;;;;;;;;;;4345015;33;20165;-73
2021/05/14 04:34:07;;;;;;;30.42;18.65;;;;;;;;;;4344960;33;20179;-73
2021/05/14 04:36:33;;;;;;;26.17;17.58;;;;;;;;;;4331202;33;20193;-73
2021/05/14 04:38:58;;;;;;;28.80;18.42;;;;;;;;;;4345037;33;20522;-73
2021/05/14 04:41:23;;;;;;;30.60;18.85;;;;;;;;;;4329469;33;20391;-73
2021/05/14 04:43:48;;;;;;;26.48;16.70;;;;;;;;;;4344396;33;20462;-72
2021/05/14 04:46:13;;;;;;;25.17;17.20;;;;;;;;;;4331247;33;20170;-74
2021/05/14 04:48:38;;;;;;;31.98;18.02;;;;;;;;;;4344085;33;20263;-74
2021/05/14 04:51:04;;;;;;;24.25;17.05;;;;;;;;;;4342790;33;20260;-74
2021/05/14 04:53:30;;;;;;;27.80;17.87;;;;;;;;;;4343443;33;20183;-74
2021/05/14 04:55:56;;;;;;;23.48;16.45;;;;;;;;;;4342824;33;20175;-73
2021/05/14 04:58:21;;;;;;;30.85;18.50;;;;;;;;;;4330789;33;20225;-73
2021/05/14 05:00:46;;;;;;;25.15;16.83;;;;;;;;;;4342958;33;20200;-73
2021/05/14 05:03:12;;;;;;;26.10;17.77;;;;;;;;;;4343495;33;20201;-74
2021/05/14 05:05:37;;;;;;;25.55;16.10;;;;;;;;;;4326255;33;20751;-73
2021/05/14 05:08:02;;;;;;;25.85;16.87;;;;;;;;;;4328550;33;20565;-73
2021/05/14 05:10:27;;;;;;;21.65;15.20;;;;;;;;;;4328059;33;20230;-73
2021/05/14 05:12:52;;;;;;;24.92;16.05;;;;;;;;;;4328220;33;20132;-72
2021/05/14 05:15:18;;;;;;;24.45;17.15;;;;;;;;;;4327948;33;20306;-72
2021/05/14 05:17:43;;;;;;;26.35;17.60;;;;;;;;;;4328851;33;20225;-74
2021/05/14 05:20:09;;;;;;;30.17;19.33;;;;;;;;;;4329389;33;20163;-74
2021/05/14 05:22:34;;;;;;;22.35;16.20;;;;;;;;;;4329405;33;20182;-73
2021/05/14 05:25:00;;;;;;;22.90;16.60;;;;;;;;;;4328119;33;20140;-74
2021/05/14 05:27:25;;;;;;;23.27;16.73;;;;;;;;;;4329470;33;20139;-73
2021/05/14 05:29:50;;;;;;;27.70;17.62;;;;;;;;;;4329009;33;20139;-73
2021/05/14 05:32:16;;;;;;;26.77;17.67;;;;;;;;;;4329380;33;20192;-73
2021/05/14 05:34:41;;;;;;;24.87;16.58;;;;;;;;;;4328398;33;20135;-73
2021/05/14 05:37:07;;;;;;;29.58;18.50;;;;;;;;;;4328452;33;20253;-73
2021/05/14 05:39:32;;;;;;;29.05;18.12;;;;;;;;;;4328269;33;20144;-72
2021/05/14 05:41:57;;;;;;;27.40;17.65;;;;;;;;;;4328312;33;20139;-74
2021/05/14 05:44:22;;;;;;;25.95;16.95;;;;;;;;;;4329420;33;20203;-75
2021/05/14 05:46:48;;;;;;;23.33;16.65;;;;;;;;;;4329662;33;20199;-74
2021/05/14 05:49:13;;;;;;;23.15;16.62;;;;;;;;;;4327142;33;20234;-73
2021/05/14 05:51:38;;;;;;;24.75;16.35;;;;;;;;;;4327038;33;20140;-73
2021/05/14 05:54:04;;;;;;;25.35;16.75;;;;;;;;;;4313499;33;20167;-74
2021/05/14 05:56:29;;;;;;;23.95;16.83;;;;;;;;;;4339780;33;20610;-72
2021/05/14 05:58:54;;;;;;;25.65;17.48;;;;;;;;;;4328839;33;20186;-73
2021/05/14 06:01:20;;;;;;;23.00;16.33;;;;;;;;;;4330228;33;20225;-74
2021/05/14 06:03:45;;;;;;;27.95;16.60;;;;;;;;;;4343228;33;20142;-73
2021/05/14 06:06:10;;;;;;;23.92;16.00;;;;;;;;;;4343455;33;20453;-73
2021/05/14 06:08:36;;;;;;;21.85;15.45;;;;;;;;;;4343640;33;20169;-74
2021/05/14 06:11:02;;;;;;;23.90;16.37;;;;;;;;;;4343504;33;20599;-74
2021/05/14 06:13:27;;;;;;;23.23;15.98;;;;;;;;;;4344362;33;20225;-74
2021/05/14 06:15:53;;;;;;;21.40;15.38;;;;;;;;;;4342505;33;20140;-75
2021/05/14 06:18:21;;;;;;;21.08;15.55;;;;;;;;;;4343701;33;20162;-73
2021/05/14 06:20:47;;;;;;;17.85;13.62;;;;;;;;;;4342840;33;20227;-74
2021/05/14 06:23:13;;;;;;;19.95;14.90;;;;;;;;;;4343222;33;20146;-73
2021/05/14 06:25:39;;;;;;;23.83;15.35;;;;;;;;;;4341614;33;20186;-74
2021/05/14 06:28:04;;;;;;;24.45;17.00;;;;;;;;;;4328173;33;20201;-74
2021/05/14 06:30:29;;;;;;;24.25;16.05;;;;;;;;;;4327227;33;20167;-73
2021/05/14 06:32:55;;;;;;;27.50;18.30;;;;;;;;;;4342100;33;20143;-71
2021/05/14 06:35:20;;;;;;;30.58;19.58;;;;;;;;;;4341478;33;20140;-70
2021/05/14 06:37:45;;;;;;;28.05;18.30;;;;;;;;;;4341141;33;20323;-70
2021/05/14 06:40:11;;;;;;;27.02;18.30;;;;;;;;;;4327724;33;20193;-70
2021/05/14 06:42:36;;;;;;;29.42;19.95;;;;;;;;;;4342046;33;20189;-69
2021/05/14 06:45:02;;;;;;;28.50;18.95;;;;;;;;;;4328446;33;20171;-69
2021/05/14 06:47:27;;;;;;;29.60;18.90;;;;;;;;;;4329683;33;20563;-70
2021/05/14 06:49:53;;;;;;;33.63;20.70;;;;;;;;;;4327524;33;20140;-69
2021/05/14 06:52:18;;;;;;;25.48;18.27;;;;;;;;;;4327611;33;20302;-70
2021/05/14 06:54:43;;;;;;;32.03;20.92;;;;;;;;;;4341646;33;20160;-70
2021/05/14 06:57:09;;;;;;;30.02;19.87;;;;;;;;;;4337361;33;20604;-70
2021/05/14 06:59:34;;;;;;;31.98;21.67;;;;;;;;;;4312333;33;20190;-70
2021/05/14 07:01:59;;;;;;;25.25;17.90;;;;;;;;;;4333482;33;20233;-70
2021/05/14 07:04:24;;;;;;;31.45;20.15;;;;;;;;;;4329117;33;20929;-71
2021/05/14 07:06:50;;;;;;;29.42;19.30;;;;;;;;;;4327379;33;20168;-70
2021/05/14 07:09:15;;;;;;;29.87;19.62;;;;;;;;;;4323487;33;20210;-71
2021/05/14 07:11:40;;;;;;;33.97;19.15;;;;;;;;;;4323812;33;20162;-71
2021/05/14 07:14:05;;;;;;;28.30;19.50;;;;;;;;;;4324570;33;20187;-71
2021/05/14 07:16:31;;;;;;;32.53;20.25;;;;;;;;;;4312951;33;20198;-71
2021/05/14 07:18:56;;;;;;;27.60;18.23;;;;;;;;;;4313188;33;20261;-71
2021/05/14 07:21:22;;;;;;;26.58;17.80;;;;;;;;;;4327606;33;20554;-71
2021/05/14 07:23:47;;;;;;;25.88;17.17;;;;;;;;;;4312706;33;20286;-71
2021/05/14 07:26:12;;;;;;;25.10;16.73;;;;;;;;;;4326175;33;20253;-70
2021/05/14 07:28:37;;;;;;;23.77;16.77;;;;;;;;;;4321681;33;20279;-71
2021/05/14 07:31:02;;;;;;;22.85;16.73;;;;;;;;;;4324779;33;20418;-71
2021/05/14 07:33:28;;;;;;;23.60;16.70;;;;;;;;;;4325116;33;20207;-70
2021/05/14 07:35:54;;;;;;;22.40;16.73;;;;;;;;;;4320017;33;20265;-69
2021/05/14 07:38:19;;;;;;;24.90;17.40;;;;;;;;;;4302002;33;20232;-70
2021/05/14 07:40:45;;;;;;;22.60;17.45;;;;;;;;;;4299715;33;20283;-70
2021/05/14 07:43:10;;;;;;;26.50;16.10;;;;;;;;;;4323976;33;20468;-70
2021/05/14 07:45:35;;;;;;;17.48;13.62;;;;;;;;;;4291644;33;20226;-72
2021/05/14 07:48:01;;;;;;;19.45;14.68;;;;;;;;;;4325793;33;20214;-73
2021/05/14 07:50:27;;;;;;;20.85;15.43;;;;;;;;;;4321027;33;20151;-73
2021/05/14 07:52:52;;;;;;;20.52;15.23;;;;;;;;;;4325852;33;20160;-73
2021/05/14 07:55:17;;;;;;;26.50;15.75;;;;;;;;;;4331160;33;20484;-73
2021/05/14 07:57:43;;;;;;;19.37;13.60;;;;;;;;;;4341259;33;20170;-73
2021/05/14 08:00:08;;;;;;;20.27;13.83;;;;;;;;;;4327536;33;20196;-72
2021/05/14 08:02:33;;;;;;;20.27;13.35;;;;;;;;;;4330504;33;20248;-73
2021/05/14 08:04:58;;;;;;;20.23;14.30;;;;;;;;;;4277047;33;20379;-72
2021/05/14 08:07:24;;;;;;;16.67;12.45;;;;;;;;;;4331497;33;20191;-72
2021/05/14 08:09:49;;;;;;;20.67;14.23;;;;;;;;;;4301264;33;20179;-72
2021/05/14 08:12:14;;;;;;;21.20;14.32;;;;;;;;;;4315739;33;20143;-72
2021/05/14 08:14:39;;;;;;;20.60;15.07;;;;;;;;;;4288890;33;20267;-72
2021/05/14 08:17:04;;;;;;;18.58;13.73;;;;;;;;;;4330758;33;20248;-73
2021/05/14 08:19:30;;;;;;;21.25;14.23;;;;;;;;;;4341352;33;20146;-72
2021/05/14 08:21:55;;;;;;;19.85;14.52;;;;;;;;;;4326316;33;20271;-73
2021/05/14 08:24:20;;;;;;;23.92;15.43;;;;;;;;;;4252409;33;20155;-73
2021/05/14 08:26:45;;;;;;;20.58;15.05;;;;;;;;;;4326226;33;20619;-73
2021/05/14 08:29:10;;;;;;;23.02;15.48;;;;;;;;;;4268169;33;20213;-73
2021/05/14 08:31:39;;;;;;;24.05;16.98;;;;;;;;;;4265701;33;20832;-72
2021/05/14 08:34:05;;;;;;;23.25;15.48;;;;;;;;;;4338041;32;20254;-73
2021/05/14 08:36:30;;;;;;;23.40;16.30;;;;;;;;;;4249255;33;20596;-73
2021/05/14 08:38:55;;;;;;;23.95;16.77;;;;;;;;;;4260327;33;20678;-73
2021/05/14 08:41:21;;;;;;;24.17;16.17;;;;;;;;;;4326067;33;20155;-72
2021/05/14 08:43:47;;;;;;;21.27;15.52;;;;;;;;;;4333927;33;20226;-72
2021/05/14 08:46:13;;;;;;;22.92;14.70;;;;;;;;;;4318427;33;20587;-73
2021/05/14 08:48:39;;;;;;;23.40;15.95;;;;;;;;;;4337337;33;20223;-74
2021/05/14 08:51:05;;;;;;;20.73;14.85;;;;;;;;;;4335331;33;20174;-73
2021/05/14 08:53:31;;;;;;;26.17;17.27;;;;;;;;;;4337653;33;20655;-73
2021/05/14 08:55:57;;;;;;;24.87;16.35;;;;;;;;;;4320678;33;20250;-73
2021/05/14 08:58:22;;;;;;;23.25;16.17;;;;;;;;;;4325580;33;20171;-73
2021/05/14 09:00:47;;;;;;;24.23;15.60;;;;;;;;;;4317419;33;20221;-73
2021/05/14 09:03:12;;;;;;;24.47;15.93;;;;;;;;;;4321308;33;20713;-73
2021/05/14 09:05:38;;;;;;;20.98;14.65;;;;;;;;;;4335851;33;20258;-73
2021/05/14 09:08:03;;;;;;;21.00;15.02;;;;;;;;;;4340877;33;20525;-73
2021/05/14 09:10:29;;;;;;;22.27;15.65;;;;;;;;;;4315391;33;20194;-72
2021/05/14 09:12:55;;;;;;;25.40;15.45;;;;;;;;;;4285622;33;20163;-72
2021/05/14 09:15:24;;;;;;;22.65;15.02;;;;;;;;;;4341635;33;20478;-72
2021/05/14 09:18:01;;;;;;;21.92;15.40;;;;;;;;;;4341078;33;20267;-73
2021/05/14 09:20:34;;;;;;;21.50;15.07;;;;;;;;;;4340569;33;20147;-73
2021/05/14 09:22:59;;;;;;;21.95;14.55;;;;;;;;;;4342374;33;20155;-74
2021/05/14 09:25:24;;;;;;;21.87;14.10;;;;;;;;;;4341888;33;20293;-73
2021/05/14 09:27:50;;;;;;;18.40;13.13;;;;;;;;;;4339748;33;20143;-73
2021/05/14 09:30:15;;;;;;;20.48;14.35;;;;;;;;;;4341067;33;20584;-73
2021/05/14 09:32:40;;;;;;;22.05;14.93;;;;;;;;;;4327365;33;20167;-73
2021/05/14 09:35:06;;;;;;;18.35;13.27;;;;;;;;;;4327490;33;20179;-73
2021/05/14 09:37:31;;;;;;;18.30;13.25;;;;;;;;;;4342486;33;20532;-73
2021/05/14 09:40:12;;;;;;;18.70;12.70;;;;;;;;;;4341091;33;20235;-73
2021/05/14 09:42:37;;;;;;;22.35;13.77;;;;;;;;;;4340886;33;20198;-74
2021/05/14 09:47:12;;;;;;;18.33;12.45;;;;;;;;;;4428661;32;20177;-73
2021/05/14 09:49:37;;;;;;;18.00;13.57;;;;;;;;;;4443326;32;20165;-72
2021/05/14 09:52:05;;;;;;;17.33;12.65;;;;;;;;;;4440064;32;20737;-73
2021/05/14 09:54:30;;;;;;;19.48;13.05;;;;;;;;;;4444631;32;20247;-74
2021/05/14 09:57:15;;;;;;;19.75;12.73;;;;;;;;;;4433882;32;20237;-73
2021/05/14 09:59:41;;;;;;;19.02;11.90;;;;;;;;;;4437245;32;20228;-75
2021/05/14 10:02:17;;;;;;;16.65;12.13;;;;;;;;;;4430027;32;20203;-74
2021/05/14 10:04:42;;;;;;;22.05;12.02;;;;;;;;;;4444457;32;20137;-75
2021/05/14 10:07:08;;;;;;;17.12;12.63;;;;;;;;;;4443118;32;20163;-75
2021/05/14 10:09:33;;;;;;;19.90;13.23;;;;;;;;;;4398992;32;20703;-74
2021/05/14 10:11:59;;;;;;;21.27;13.10;;;;;;;;;;4444441;32;20157;-73
2021/05/14 10:14:24;;;;;;;18.77;13.50;;;;;;;;;;4443458;32;20256;-75
2021/05/14 10:16:49;;;;;;;17.17;12.37;;;;;;;;;;4429656;32;20612;-74
2021/05/14 10:19:14;;;;;;;17.08;12.07;;;;;;;;;;4443990;32;20161;-74
2021/05/14 10:21:42;;;;;;;17.90;11.73;;;;;;;;;;4428961;32;20253;-73
2021/05/14 10:24:07;;;;;;;19.52;13.25;;;;;;;;;;4443101;32;20600;-73
2021/05/14 10:26:36;;;;;;;17.00;12.05;;;;;;;;;;4394733;32;20145;-74
2021/05/14 10:29:10;;;;;;;18.95;12.73;;;;;;;;;;4442316;32;20157;-72
2021/05/14 10:31:42;;;;;;;17.50;11.63;;;;;;;;;;4440348;32;20177;-71
2021/05/14 10:34:12;;;;;;;16.37;11.40;;;;;;;;;;4406925;32;20145;-73
2021/05/14 10:36:37;;;;;;;16.20;12.05;;;;;;;;;;4406861;32;20167;-74
2021/05/14 10:39:15;;;;;;;16.77;11.73;;;;;;;;;;4412140;32;20297;-74
2021/05/14 10:41:48;;;;;;;15.57;11.82;;;;;;;;;;4430981;32;20252;-73
2021/05/14 10:44:13;;;;;;;17.23;11.95;;;;;;;;;;4448019;32;20157;-73
2021/05/14 10:46:38;;;;;;;15.90;11.63;;;;;;;;;;4457017;32;20641;-72
2021/05/14 10:49:07;;;;;;;16.33;12.40;;;;;;;;;;4443456;32;20885;-74
2021/05/14 10:51:48;;;;;;;17.42;11.82;;;;;;;;;;4417940;32;20292;-75
2021/05/14 10:54:32;;;;;;;17.27;11.63;;;;;;;;;;4413003;32;20161;-74
2021/05/14 10:56:58;;;;;;;17.25;12.18;;;;;;;;;;4424132;32;20331;-74
2021/05/14 10:59:30;;;;;;;15.57;11.20;;;;;;;;;;4416413;32;20161;-74
2021/05/14 11:01:56;;;;;;;15.77;11.50;;;;;;;;;;4416691;32;20199;-75
2021/05/14 11:04:25;;;;;;;16.52;11.70;;;;;;;;;;4407865;32;20168;-74
2021/05/14 11:06:51;;;;;;;14.15;10.60;;;;;;;;;;4433040;32;20451;-74
2021/05/14 11:09:17;;;;;;;16.77;11.85;;;;;;;;;;4425412;32;20150;-75
2021/05/14 11:11:58;;;;;;;16.95;12.18;;;;;;;;;;4402476;32;20218;-77
2021/05/14 11:14:23;;;;;;;14.02;11.32;;;;;;;;;;4428903;32;20209;-75
2021/05/14 11:16:58;;;;;;;15.65;11.23;;;;;;;;;;4419163;32;20173;-75
2021/05/14 11:19:30;;;;;;;16.60;12.37;;;;;;;;;;4431539;32;20157;-70
2021/05/14 11:21:57;;;;;;;16.87;11.32;;;;;;;;;;4432790;32;20272;-71
2021/05/14 11:24:33;;;;;;;16.33;11.57;;;;;;;;;;4422184;32;20582;-70
2021/05/14 11:26:59;;;;;;;17.17;11.40;;;;;;;;;;4401589;32;20173;-71
2021/05/14 11:29:34;;;;;;;14.18;10.60;;;;;;;;;;4435641;32;20138;-72
2021/05/14 11:32:18;;;;;;;17.50;11.85;;;;;;;;;;4417809;32;20141;-71
2021/05/14 11:34:50;;;;;;;18.08;11.68;;;;;;;;;;4430765;32;20559;-70
2021/05/14 11:37:17;;;;;;;15.82;10.95;;;;;;;;;;4417136;32;20212;-69
2021/05/14 11:39:42;;;;;;;14.23;10.13;;;;;;;;;;4416637;32;20257;-71
2021/05/14 11:42:15;;;;;;;14.53;10.43;;;;;;;;;;4418556;32;20181;-70
2021/05/14 11:44:52;;;;;;;13.57;10.63;;;;;;;;;;4405767;32;20698;-70
2021/05/14 11:47:17;;;;;;;14.70;11.32;;;;;;;;;;4407629;32;20276;-68
2021/05/14 11:49:42;;;;;;;12.00;10.25;;;;;;;;;;4432314;32;20936;-70
2021/05/14 11:52:08;;;;;;;12.53;10.07;;;;;;;;;;4433046;32;20264;-69
2021/05/14 11:54:34;;;;;;;13.82;9.63;;;;;;;;;;4440227;32;20278;-69
2021/05/14 11:57:00;;;;;;;14.82;10.40;;;;;;;;;;4419605;32;20158;-70
2021/05/14 11:59:25;;;;;;;11.73;9.48;;;;;;;;;;4442696;32;20188;-70
2021/05/14 12:01:50;;;;;;;14.00;10.93;;;;;;;;;;4430062;32;20177;-69
2021/05/14 12:04:15;;;;;;;12.98;10.60;;;;;;;;;;4416848;32;20176;-70
2021/05/14 12:06:50;;;;;;;11.97;9.30;;;;;;;;;;4402764;32;20165;-69
2021/05/14 12:09:16;;;;;;;17.23;12.43;;;;;;;;;;4430672;32;20310;-69
2021/05/14 12:11:43;;;;;;;17.33;11.63;;;;;;;;;;4419151;32;20145;-70
2021/05/14 12:14:09;;;;;;;15.68;11.68;;;;;;;;;;4416089;32;20214;-70
2021/05/14 12:16:37;;;;;;;14.50;11.27;;;;;;;;;;4411795;32;20181;-69
2021/05/14 12:19:04;;;;;;;16.98;12.35;;;;;;;;;;4426344;32;20272;-69
2021/05/14 12:21:30;;;;;;;16.10;11.65;;;;;;;;;;4391792;32;20562;-70
2021/05/14 12:23:56;;;;;;;16.05;12.55;;;;;;;;;;4421432;32;20205;-69
2021/05/14 12:26:22;;;;;;;15.95;12.10;;;;;;;;;;4416265;32;20199;-69
2021/05/14 12:28:48;;;;;;;21.62;13.35;;;;;;;;;;4410436;32;20313;-71
2021/05/14 12:31:14;;;;;;;16.65;11.12;;;;;;;;;;4422655;32;20846;-69
2021/05/14 12:34:05;;;;;;;17.50;12.35;;;;;;;;;;4416838;32;20268;-68
2021/05/14 12:36:32;;;;;;;18.25;13.07;;;;;;;;;;4418571;32;20182;-70
2021/05/14 12:39:07;;;;;;;20.52;13.07;;;;;;;;;;4416612;32;20520;-68
2021/05/14 12:41:32;;;;;;;18.40;13.13;;;;;;;;;;4417260;32;20194;-70
2021/05/14 12:44:24;;;;;;;20.08;14.05;;;;;;;;;;4414335;32;20134;-69
2021/05/14 12:46:59;;;;;;;19.08;13.07;;;;;;;;;;4432012;32;20177;-69
2021/05/14 12:49:25;;;;;;;19.58;13.52;;;;;;;;;;4378044;32;20486;-70
2021/05/14 12:52:01;;;;;;;16.05;12.15;;;;;;;;;;4351151;32;20169;-69
2021/05/14 12:54:26;;;;;;;21.40;14.45;;;;;;;;;;4337974;32;20270;-70
2021/05/14 12:56:51;;;;;;;20.10;13.55;;;;;;;;;;4328110;32;20220;-70
2021/05/14 12:59:17;;;;;;;20.37;14.13;;;;;;;;;;4329509;32;20142;-70
2021/05/14 13:01:46;;;;;;;19.92;13.40;;;;;;;;;;4330444;32;20634;-69
2021/05/14 13:04:12;;;;;;;21.23;13.15;;;;;;;;;;4333964;32;20145;-70
2021/05/14 13:06:37;;;;;;;21.02;13.73;;;;;;;;;;4329691;32;20172;-70
2021/05/14 13:09:08;;;;;;;23.45;14.70;;;;;;;;;;4337090;32;21420;-70
2021/05/14 13:11:41;;;;;;;21.20;13.82;;;;;;;;;;4320507;32;20953;-70
2021/05/14 13:14:08;;;;;;;24.10;15.80;;;;;;;;;;4337766;32;20134;-71
2021/05/14 13:16:34;;;;;;;22.52;15.30;;;;;;;;;;4320452;32;20181;-71
2021/05/14 13:18:59;;;;;;;25.02;16.70;;;;;;;;;;4337205;32;20163;-71
2021/05/14 13:21:25;;;;;;;22.73;15.82;;;;;;;;;;4339211;32;20149;-70
2021/05/14 13:23:51;;;;;;;20.27;14.43;;;;;;;;;;4345882;32;20161;-70
2021/05/14 13:26:17;;;;;;;23.38;15.05;;;;;;;;;;4339556;32;20505;-71
2021/05/14 13:28:45;;;;;;;22.98;15.27;;;;;;;;;;4329672;32;20616;-71
2021/05/14 13:31:10;;;;;;;22.73;16.30;;;;;;;;;;4348854;32;20260;-71
2021/05/14 13:33:36;;;;;;;19.00;14.25;;;;;;;;;;4349919;32;20145;-71
2021/05/14 13:36:01;;;;;;;19.35;14.32;;;;;;;;;;4337992;32;20241;-70
2021/05/14 13:38:26;;;;;;;19.33;13.40;;;;;;;;;;4353015;32;20157;-69
2021/05/14 13:40:51;;;;;;;19.90;13.05;;;;;;;;;;4355807;32;20250;-70
2021/05/14 13:43:16;;;;;;;15.90;12.52;;;;;;;;;;4356695;32;20232;-69
2021/05/14 13:45:43;;;;;;;15.95;11.57;;;;;;;;;;4351134;32;20268;-70
2021/05/14 13:48:14;;;;;;;20.25;12.75;;;;;;;;;;4341037;32;20246;-71
2021/05/14 13:50:40;;;;;;;16.60;12.40;;;;;;;;;;4336507;32;20149;-70
2021/05/14 13:53:05;;;;;;;14.57;11.43;;;;;;;;;;4333022;32;20192;-70
2021/05/14 13:55:30;;;;;;;14.70;11.07;;;;;;;;;;4337227;32;20234;-71
2021/05/14 13:57:55;;;;;;;13.67;11.57;;;;;;;;;;4337599;32;20256;-71
2021/05/14 14:00:21;;;;;;;13.18;9.48;;;;;;;;;;4337647;32;20300;-71
2021/05/14 14:02:46;;;;;;;11.35;10.13;;;;;;;;;;4336969;32;20242;-71
2021/05/14 14:05:11;;;;;;;11.40;9.35;;;;;;;;;;4342373;32;20194;-70
2021/05/14 14:07:36;;;;;;;14.18;10.38;;;;;;;;;;4337265;32;20256;-70
2021/05/14 14:10:02;;;;;;;13.57;11.10;;;;;;;;;;4334001;32;20138;-70
2021/05/14 14:12:27;;;;;;;13.25;9.98;;;;;;;;;;4335712;32;20759;-70
2021/05/14 14:14:52;;;;;;;12.88;11.40;;;;;;;;;;4335799;32;20146;-71
2021/05/14 14:17:17;;;;;;;13.43;10.75;;;;;;;;;;4338266;32;20168;-70